createdAt,value
2022-07-27T00:00:10.289Z,17.05
2022-07-27T00:01:13.175Z,17.05
2022-07-27T00:02:15.800Z,17.05
2022-07-27T00:03:18.673Z,17.04
2022-07-27T00:04:21.317Z,17.05
2022-07-27T00:05:24.216Z,17.05
2022-07-27T00:06:27.293Z,17.03
2022-07-27T00:07:29.963Z,17.03
2022-07-27T00:08:32.491Z,17.01
2022-07-27T00:09:35.095Z,17.00
2022-07-27T00:10:38.182Z,17.00
2022-07-27T00:11:40.807Z,16.97
2022-07-27T00:12:43.411Z,16.96
2022-07-27T00:13:45.983Z,16.95
2022-07-27T00:14:48.960Z,16.96
2022-07-27T00:15:51.592Z,16.96
2022-07-27T00:16:55.116Z,16.96
2022-07-27T00:17:57.680Z,16.95
2022-07-27T00:19:00.768Z,16.94
2022-07-27T00:20:03.537Z,16.92
2022-07-27T00:21:06.244Z,16.91
2022-07-27T00:22:08.934Z,16.90
2022-07-27T00:23:11.743Z,16.88
2022-07-27T00:24:14.318Z,16.87
2022-07-27T00:25:16.946Z,16.87
2022-07-27T00:26:20.369Z,16.87
2022-07-27T00:27:23.031Z,16.86
2022-07-27T00:28:25.713Z,16.83
2022-07-27T00:29:28.376Z,16.83
2022-07-27T00:30:31.347Z,16.84
2022-07-27T00:31:33.982Z,16.84
2022-07-27T00:32:36.992Z,16.85
2022-07-27T00:33:39.583Z,16.85
2022-07-27T00:34:42.441Z,16.85
2022-07-27T00:35:45.119Z,16.85
2022-07-27T00:36:47.936Z,16.83
2022-07-27T00:37:50.608Z,16.84
2022-07-27T00:38:53.240Z,16.85
2022-07-27T00:39:55.842Z,16.86
2022-07-27T00:40:58.659Z,16.87
2022-07-27T00:42:01.962Z,16.88
2022-07-27T00:43:04.608Z,16.87
2022-07-27T00:44:07.176Z,16.88
2022-07-27T00:45:09.756Z,16.87
2022-07-27T00:46:12.913Z,16.87
2022-07-27T00:47:15.592Z,16.86
2022-07-27T00:48:18.159Z,16.85
2022-07-27T00:49:20.837Z,16.85
2022-07-27T00:50:24.212Z,16.84
2022-07-27T00:51:26.739Z,16.84
2022-07-27T00:52:29.359Z,16.84
2022-07-27T00:53:31.916Z,16.82
2022-07-27T00:54:34.588Z,16.81
2022-07-27T00:55:37.357Z,16.78
2022-07-27T00:56:40.240Z,16.77
2022-07-27T00:57:59.111Z,16.75
2022-07-27T00:58:47.311Z,16.74
2022-07-27T00:59:50.185Z,16.73
2022-07-27T01:00:53.050Z,16.72
2022-07-27T01:01:55.853Z,16.72
2022-07-27T01:02:58.832Z,16.72
2022-07-27T01:04:03.217Z,16.72
2022-07-27T01:05:07.114Z,16.69
2022-07-27T01:06:11.277Z,16.68
2022-07-27T01:07:13.885Z,16.65
2022-07-27T01:08:16.516Z,16.63
2022-07-27T01:09:19.119Z,16.62
2022-07-27T01:10:23.583Z,16.60
2022-07-27T01:11:26.301Z,16.59
2022-07-27T01:12:28.860Z,16.58
2022-07-27T01:13:31.441Z,16.54
2022-07-27T01:14:34.104Z,16.50
2022-07-27T01:15:36.733Z,16.48
2022-07-27T01:16:40.207Z,16.47
2022-07-27T01:17:42.832Z,16.45
2022-07-27T01:18:45.502Z,16.43
2022-07-27T01:19:48.131Z,16.42
2022-07-27T01:20:51.145Z,16.42
2022-07-27T01:21:53.915Z,16.41
2022-07-27T01:22:56.543Z,16.40
2022-07-27T01:23:59.768Z,16.40
2022-07-27T01:25:02.425Z,16.39
2022-07-27T01:26:05.728Z,16.37
2022-07-27T01:27:08.389Z,16.36
2022-07-27T01:28:11.069Z,16.33
2022-07-27T01:29:14.180Z,16.33
2022-07-27T01:30:18.243Z,16.33
2022-07-27T01:31:20.941Z,16.31
2022-07-27T01:32:23.597Z,16.30
2022-07-27T01:33:26.345Z,16.29
2022-07-27T01:34:29.020Z,16.29
2022-07-27T01:35:31.692Z,16.29
2022-07-27T01:36:34.465Z,16.29
2022-07-27T01:37:37.129Z,16.29
2022-07-27T01:38:41.544Z,16.27
2022-07-27T01:39:44.082Z,16.23
2022-07-27T01:40:47.089Z,16.21
2022-07-27T01:41:50.065Z,16.20
2022-07-27T01:42:53.341Z,16.19
2022-07-27T01:43:55.911Z,16.19
2022-07-27T01:44:58.608Z,16.19
2022-07-27T01:46:01.164Z,16.21
2022-07-27T01:47:03.813Z,16.21
2022-07-27T01:48:08.535Z,16.22
2022-07-27T01:49:11.602Z,16.22
2022-07-27T01:50:16.201Z,16.23
2022-07-27T01:51:18.754Z,16.24
2022-07-27T01:52:21.359Z,16.27
2022-07-27T01:53:24.237Z,16.29
2022-07-27T01:54:26.847Z,16.31
2022-07-27T01:55:36.948Z,16.32
2022-07-27T01:56:34.085Z,16.32
2022-07-27T01:57:36.715Z,16.32
2022-07-27T01:58:39.320Z,16.33
2022-07-27T01:59:41.889Z,16.33
2022-07-27T02:00:44.864Z,16.35
2022-07-27T02:01:47.605Z,16.32
2022-07-27T02:02:50.510Z,16.33
2022-07-27T02:03:53.201Z,16.35
2022-07-27T02:04:55.787Z,16.35
2022-07-27T02:05:58.516Z,16.34
2022-07-27T02:07:01.492Z,16.34
2022-07-27T02:08:04.064Z,16.35
2022-07-27T02:09:06.755Z,16.37
2022-07-27T02:10:10.746Z,16.38
2022-07-27T02:11:13.296Z,16.39
2022-07-27T02:12:15.824Z,16.43
2022-07-27T02:13:22.308Z,16.47
2022-07-27T02:14:22.951Z,16.54
2022-07-27T02:15:25.709Z,16.62
2022-07-27T02:16:28.885Z,16.67
2022-07-27T02:17:35.104Z,16.79
2022-07-27T02:18:37.921Z,16.95
2022-07-27T02:19:41.508Z,17.13
2022-07-27T02:20:45.225Z,17.29
2022-07-27T02:21:48.099Z,17.40
2022-07-27T02:22:50.748Z,17.51
2022-07-27T02:23:53.374Z,17.68
2022-07-27T02:24:55.983Z,17.91
2022-07-27T02:25:58.502Z,18.12
2022-07-27T02:27:01.730Z,18.35
2022-07-27T02:28:04.296Z,18.57
2022-07-27T02:29:06.866Z,18.73
2022-07-27T02:30:11.379Z,18.90
2022-07-27T02:31:13.912Z,19.08
2022-07-27T02:32:16.534Z,19.33
2022-07-27T02:33:19.160Z,19.58
2022-07-27T02:34:22.217Z,19.77
2022-07-27T02:35:24.843Z,19.97
2022-07-27T02:36:27.919Z,20.12
2022-07-27T02:37:30.572Z,20.31
2022-07-27T02:38:33.161Z,20.46
2022-07-27T02:39:35.767Z,20.61
2022-07-27T02:40:38.607Z,20.78
2022-07-27T02:41:41.208Z,20.90
2022-07-27T02:42:43.829Z,21.00
2022-07-27T02:43:46.859Z,21.06
2022-07-27T02:44:49.624Z,21.17
2022-07-27T02:45:52.338Z,21.21
2022-07-27T02:46:55.516Z,21.27
2022-07-27T02:47:59.516Z,21.34
2022-07-27T02:49:02.171Z,21.44
2022-07-27T02:50:05.164Z,21.55
2022-07-27T02:51:07.832Z,21.62
2022-07-27T02:52:10.499Z,21.71
2022-07-27T02:53:13.075Z,21.79
2022-07-27T02:54:15.737Z,21.84
2022-07-27T02:55:18.323Z,21.88
2022-07-27T02:56:26.893Z,21.97
2022-07-27T02:57:26.363Z,22.06
2022-07-27T02:58:28.849Z,22.09
2022-07-27T02:59:31.439Z,22.05
2022-07-27T03:00:34.268Z,21.98
2022-07-27T03:01:37.240Z,21.88
2022-07-27T03:02:40.267Z,21.79
2022-07-27T03:03:42.949Z,21.63
2022-07-27T03:04:45.533Z,21.63
2022-07-27T03:05:48.434Z,21.40
2022-07-27T03:06:51.472Z,21.27
2022-07-27T03:07:54.020Z,21.22
2022-07-27T03:08:56.791Z,21.29
2022-07-27T03:09:59.360Z,21.22
2022-07-27T03:11:02.150Z,21.12
2022-07-27T03:12:04.841Z,21.02
2022-07-27T03:13:07.468Z,21.02
2022-07-27T03:14:10.080Z,21.07
2022-07-27T03:15:12.662Z,21.03
2022-07-27T03:16:16.460Z,21.08
2022-07-27T03:17:19.374Z,21.11
2022-07-27T03:18:21.944Z,21.18
2022-07-27T03:19:28.373Z,21.02
2022-07-27T03:20:30.150Z,20.91
2022-07-27T03:21:32.818Z,20.91
2022-07-27T03:22:36.006Z,20.82
2022-07-27T03:23:38.674Z,20.81
2022-07-27T03:24:43.076Z,20.69
2022-07-27T03:25:45.678Z,20.49
2022-07-27T03:26:48.619Z,20.53
2022-07-27T03:27:51.151Z,20.63
2022-07-27T03:28:53.755Z,20.65
2022-07-27T03:29:56.427Z,20.79
2022-07-27T03:30:59.390Z,20.78
2022-07-27T03:32:02.277Z,20.70
2022-07-27T03:33:05.048Z,20.59
2022-07-27T03:34:07.672Z,20.59
2022-07-27T03:35:11.824Z,20.54
2022-07-27T03:36:15.099Z,20.54
2022-07-27T03:37:17.871Z,20.47
2022-07-27T03:38:20.471Z,20.42
2022-07-27T03:39:23.069Z,20.36
2022-07-27T03:40:27.579Z,20.36
2022-07-27T03:41:30.598Z,20.27
2022-07-27T03:42:33.228Z,20.16
2022-07-27T03:43:36.245Z,20.12
2022-07-27T03:44:39.020Z,20.06
2022-07-27T03:45:41.607Z,20.07
2022-07-27T03:46:44.557Z,20.07
2022-07-27T03:47:47.168Z,20.02
2022-07-27T03:48:49.863Z,19.96
2022-07-27T03:49:52.565Z,19.83
2022-07-27T03:50:55.236Z,19.77
2022-07-27T03:51:57.865Z,19.73
2022-07-27T03:53:00.504Z,19.68
2022-07-27T03:54:03.041Z,19.75
2022-07-27T03:55:05.915Z,19.84
2022-07-27T03:56:09.232Z,19.91
2022-07-27T03:57:11.763Z,19.98
2022-07-27T03:58:14.430Z,20.06
2022-07-27T03:59:17.099Z,20.19
2022-07-27T04:00:21.202Z,20.27
2022-07-27T04:01:24.194Z,20.36
2022-07-27T04:02:27.324Z,20.49
2022-07-27T04:03:30.031Z,20.57
2022-07-27T04:04:32.596Z,20.65
2022-07-27T04:05:35.035Z,20.71
2022-07-27T04:06:38.047Z,20.77
2022-07-27T04:07:41.936Z,20.67
2022-07-27T04:08:44.504Z,20.63
2022-07-27T04:09:48.459Z,20.67
2022-07-27T04:10:53.020Z,20.66
2022-07-27T04:11:55.696Z,20.56
2022-07-27T04:12:58.357Z,20.56
2022-07-27T04:14:01.949Z,20.50
2022-07-27T04:15:04.616Z,20.63
2022-07-27T04:16:07.590Z,20.71
2022-07-27T04:17:10.258Z,20.84
2022-07-27T04:18:13.248Z,20.86
2022-07-27T04:19:16.272Z,20.75
2022-07-27T04:20:20.112Z,20.82
2022-07-27T04:21:23.395Z,20.84
2022-07-27T04:22:28.323Z,20.83
2022-07-27T04:23:36.169Z,20.88
2022-07-27T04:24:35.600Z,20.81
2022-07-27T04:25:38.125Z,20.77
2022-07-27T04:26:41.042Z,20.70
2022-07-27T04:27:43.610Z,20.82
2022-07-27T04:28:46.276Z,20.89
2022-07-27T04:29:48.959Z,20.97
2022-07-27T04:30:52.083Z,21.01
2022-07-27T04:31:54.798Z,21.18
2022-07-27T04:32:57.497Z,21.16
2022-07-27T04:34:00.135Z,21.12
2022-07-27T04:35:02.707Z,21.13
2022-07-27T04:36:05.683Z,21.20
2022-07-27T04:37:08.360Z,21.24
2022-07-27T04:38:11.016Z,21.30
2022-07-27T04:39:13.943Z,21.33
2022-07-27T04:41:30.215Z,21.77
2022-07-27T04:42:33.392Z,21.81
2022-07-27T04:43:36.961Z,21.93
2022-07-27T04:44:39.488Z,22.10
2022-07-27T04:45:42.125Z,22.13
2022-07-27T04:46:45.074Z,22.11
2022-07-27T04:47:47.676Z,22.26
2022-07-27T04:48:50.291Z,22.22
2022-07-27T04:49:52.941Z,22.35
2022-07-27T04:50:55.917Z,22.52
2022-07-27T04:51:58.485Z,22.65
2022-07-27T04:53:01.093Z,22.58
2022-07-27T04:54:03.765Z,22.58
2022-07-27T04:55:06.439Z,22.60
2022-07-27T04:56:09.608Z,22.62
2022-07-27T04:57:12.178Z,22.62
2022-07-27T04:58:14.883Z,22.79
2022-07-27T04:59:17.521Z,22.97
2022-07-27T05:00:21.928Z,23.05
2022-07-27T05:01:24.633Z,23.17
2022-07-27T05:02:27.877Z,23.34
2022-07-27T05:03:30.403Z,23.48
2022-07-27T05:04:33.046Z,23.63
2022-07-27T05:05:35.993Z,23.74
2022-07-27T05:06:39.065Z,23.84
2022-07-27T05:07:41.639Z,23.78
2022-07-27T05:08:44.305Z,23.88
2022-07-27T05:09:46.977Z,23.98
2022-07-27T05:10:49.775Z,24.15
2022-07-27T05:11:52.496Z,24.31
2022-07-27T05:12:55.350Z,24.45
2022-07-27T05:13:57.919Z,24.59
2022-07-27T05:15:00.680Z,24.76
2022-07-27T05:16:03.430Z,24.92
2022-07-27T05:17:06.363Z,25.00
2022-07-27T05:18:09.411Z,25.02
2022-07-27T05:19:12.560Z,25.19
2022-07-27T05:20:17.304Z,25.29
2022-07-27T05:21:21.052Z,25.25
2022-07-27T05:22:23.973Z,25.33
2022-07-27T05:23:26.539Z,25.35
2022-07-27T05:24:29.064Z,25.36
2022-07-27T05:25:31.613Z,25.34
2022-07-27T05:26:34.704Z,25.52
2022-07-27T05:27:37.332Z,25.66
2022-07-27T05:28:41.874Z,25.80
2022-07-27T05:29:44.877Z,26.01
2022-07-27T05:30:47.844Z,26.19
2022-07-27T05:31:50.481Z,26.29
2022-07-27T05:32:53.480Z,26.47
2022-07-27T05:33:58.370Z,26.65
2022-07-27T05:35:00.710Z,26.76
2022-07-27T05:36:03.646Z,26.91
2022-07-27T05:37:07.998Z,27.08
2022-07-27T05:38:10.643Z,27.17
2022-07-27T05:39:13.928Z,27.32
2022-07-27T05:40:18.482Z,27.43
2022-07-27T05:41:21.296Z,27.45
2022-07-27T05:42:24.256Z,27.54
2022-07-27T05:43:27.806Z,27.62
2022-07-27T05:44:30.425Z,27.69
2022-07-27T05:45:33.177Z,27.70
2022-07-27T05:46:37.087Z,27.69
2022-07-27T05:47:40.674Z,27.66
2022-07-27T05:48:43.249Z,27.69
2022-07-27T05:49:46.017Z,27.77
2022-07-27T05:50:48.990Z,27.85
2022-07-27T05:51:51.657Z,27.75
2022-07-27T05:52:54.325Z,27.81
2022-07-27T05:53:56.892Z,27.98
2022-07-27T05:54:59.426Z,28.05
2022-07-27T05:56:01.954Z,28.09
2022-07-27T05:57:04.591Z,28.07
2022-07-27T05:58:07.161Z,28.21
2022-07-27T05:59:10.133Z,28.33
2022-07-27T06:00:14.011Z,28.37
2022-07-27T06:01:16.646Z,28.33
2022-07-27T06:02:19.276Z,28.33
2022-07-27T06:03:22.394Z,28.30
2022-07-27T06:04:25.227Z,28.35
2022-07-27T06:05:27.753Z,28.47
2022-07-27T06:06:31.185Z,28.49
2022-07-27T06:07:35.546Z,28.54
2022-07-27T06:08:38.157Z,28.66
2022-07-27T06:09:40.728Z,28.77
2022-07-27T06:10:43.397Z,28.91
2022-07-27T06:11:46.065Z,29.04
2022-07-27T06:12:48.737Z,29.16
2022-07-27T06:13:51.441Z,29.20
2022-07-27T06:14:54.023Z,29.18
2022-07-27T06:15:56.641Z,29.11
2022-07-27T06:16:59.427Z,29.11
2022-07-27T06:18:02.078Z,29.06
2022-07-27T06:19:04.702Z,29.00
2022-07-27T06:20:08.032Z,29.03
2022-07-27T06:21:11.034Z,29.12
2022-07-27T06:22:13.669Z,29.26
2022-07-27T06:23:16.195Z,29.36
2022-07-27T06:24:18.806Z,29.39
2022-07-27T06:25:21.680Z,29.48
2022-07-27T06:26:25.274Z,29.56
2022-07-27T06:27:29.699Z,29.51
2022-07-27T06:28:32.454Z,29.44
2022-07-27T06:29:35.121Z,29.40
2022-07-27T06:30:38.097Z,29.41
2022-07-27T06:31:40.754Z,29.45
2022-07-27T06:32:45.176Z,29.52
2022-07-27T06:33:50.990Z,29.65
2022-07-27T06:34:53.996Z,29.79
2022-07-27T06:35:57.664Z,29.97
2022-07-27T06:37:02.220Z,30.16
2022-07-27T06:38:04.873Z,30.18
2022-07-27T06:39:07.545Z,30.30
2022-07-27T06:40:11.349Z,30.39
2022-07-27T06:41:14.004Z,30.40
2022-07-27T06:42:16.678Z,30.45
2022-07-27T06:43:19.445Z,30.40
2022-07-27T06:44:21.972Z,30.32
2022-07-27T06:45:24.582Z,30.21
2022-07-27T06:46:28.930Z,30.02
2022-07-27T06:47:31.558Z,30.15
2022-07-27T06:48:34.206Z,30.47
2022-07-27T06:49:36.893Z,30.67
2022-07-27T06:50:40.184Z,30.88
2022-07-27T06:51:42.853Z,30.69
2022-07-27T06:52:45.521Z,30.61
2022-07-27T06:53:48.093Z,30.71
2022-07-27T06:54:50.868Z,30.87
2022-07-27T06:55:53.524Z,31.12
2022-07-27T06:56:58.036Z,31.12
2022-07-27T06:58:00.559Z,31.23
2022-07-27T06:59:03.180Z,31.21
2022-07-27T07:00:06.316Z,31.36
2022-07-27T07:01:09.187Z,31.32
2022-07-27T07:02:11.995Z,31.23
2022-07-27T07:03:14.665Z,31.56
2022-07-27T07:04:17.258Z,31.76
2022-07-27T07:05:22.052Z,31.88
2022-07-27T07:06:25.152Z,31.99
2022-07-27T07:07:27.699Z,32.02
2022-07-27T07:08:30.472Z,32.07
2022-07-27T07:09:33.137Z,32.00
2022-07-27T07:10:36.425Z,31.94
2022-07-27T07:11:39.029Z,31.87
2022-07-27T07:12:41.659Z,31.91
2022-07-27T07:13:45.200Z,31.92
2022-07-27T07:14:47.994Z,31.99
2022-07-27T07:15:50.674Z,32.04
2022-07-27T07:16:53.464Z,32.07
2022-07-27T07:17:56.441Z,32.19
2022-07-27T07:18:59.114Z,32.34
2022-07-27T07:20:01.679Z,32.60
2022-07-27T07:21:04.268Z,32.79
2022-07-27T07:22:06.911Z,32.82
2022-07-27T07:23:09.582Z,33.02
2022-07-27T07:24:12.253Z,33.08
2022-07-27T07:25:15.021Z,33.16
2022-07-27T07:26:18.344Z,33.24
2022-07-27T07:27:20.977Z,33.32
2022-07-27T07:28:23.600Z,33.28
2022-07-27T07:29:26.211Z,33.21
2022-07-27T07:30:29.599Z,33.06
2022-07-27T07:31:32.403Z,32.91
2022-07-27T07:32:35.156Z,32.66
2022-07-27T07:33:37.708Z,32.43
2022-07-27T07:34:40.376Z,32.43
2022-07-27T07:36:13.712Z,32.31
2022-07-27T07:36:47.767Z,32.13
2022-07-27T07:37:50.865Z,32.03
2022-07-27T07:38:53.744Z,32.00
2022-07-27T07:39:56.509Z,31.88
2022-07-27T07:40:59.641Z,31.87
2022-07-27T07:42:02.648Z,31.92
2022-07-27T07:43:05.894Z,31.87
2022-07-27T07:44:08.501Z,31.99
2022-07-27T07:45:11.064Z,32.16
2022-07-27T07:46:14.260Z,32.18
2022-07-27T07:47:16.909Z,32.33
2022-07-27T07:48:19.442Z,32.41
2022-07-27T07:49:38.110Z,32.40
2022-07-27T07:50:28.502Z,32.02
2022-07-27T07:51:31.171Z,32.19
2022-07-27T07:52:33.665Z,32.45
2022-07-27T07:53:41.202Z,32.60
2022-07-27T07:54:40.784Z,32.58
2022-07-27T07:55:43.589Z,32.54
2022-07-27T07:56:46.463Z,32.45
2022-07-27T07:57:49.133Z,32.34
2022-07-27T07:58:53.607Z,32.15
2022-07-27T07:59:56.341Z,32.00
2022-07-27T08:00:59.291Z,31.85
2022-07-27T08:02:02.248Z,31.64
2022-07-27T08:03:05.315Z,31.29
2022-07-27T08:04:08.253Z,31.30
2022-07-27T08:05:10.848Z,31.25
2022-07-27T08:06:15.429Z,31.41
2022-07-27T08:07:18.102Z,31.60
2022-07-27T08:08:20.772Z,31.83
2022-07-27T08:09:25.327Z,31.96
2022-07-27T08:10:29.356Z,32.05
2022-07-27T08:11:31.880Z,32.22
2022-07-27T08:12:34.500Z,32.63
2022-07-27T08:13:37.162Z,32.99
2022-07-27T08:14:39.726Z,33.36
2022-07-27T08:15:42.507Z,33.70
2022-07-27T08:16:45.895Z,33.91
2022-07-27T08:17:50.292Z,33.80
2022-07-27T08:18:52.861Z,33.46
2022-07-27T08:19:55.537Z,33.20
2022-07-27T08:20:58.609Z,32.60
2022-07-27T08:22:02.198Z,32.71
2022-07-27T08:23:05.439Z,32.66
2022-07-27T08:24:08.048Z,32.50
2022-07-27T08:25:10.717Z,32.66
2022-07-27T08:26:15.337Z,32.80
2022-07-27T08:27:18.001Z,32.69
2022-07-27T08:28:20.681Z,32.72
2022-07-27T08:29:23.991Z,32.62
2022-07-27T08:30:32.204Z,32.58
2022-07-27T08:31:52.684Z,32.55
2022-07-27T08:32:39.485Z,32.50
2022-07-27T08:33:42.312Z,32.53
2022-07-27T08:34:44.879Z,32.48
2022-07-27T08:35:47.365Z,32.59
2022-07-27T08:36:50.628Z,32.76
2022-07-27T08:37:53.193Z,32.91
2022-07-27T08:38:55.760Z,33.06
2022-07-27T08:41:02.925Z,33.34
2022-07-27T08:42:05.509Z,33.45
2022-07-27T08:43:08.484Z,33.51
2022-07-27T08:44:11.157Z,33.67
2022-07-27T08:45:16.108Z,33.86
2022-07-27T08:46:20.040Z,34.03
2022-07-27T08:47:22.811Z,34.23
2022-07-27T08:48:25.415Z,34.40
2022-07-27T08:49:42.000Z,34.58
2022-07-27T08:50:32.556Z,34.67
2022-07-27T08:51:35.165Z,34.66
2022-07-27T08:52:37.746Z,33.35
2022-07-27T08:53:52.694Z,33.39
2022-07-27T08:54:44.776Z,33.65
2022-07-27T08:55:47.387Z,33.96
2022-07-27T08:56:50.557Z,34.05
2022-07-27T08:57:53.124Z,34.28
2022-07-27T08:58:55.693Z,34.61
2022-07-27T08:59:58.361Z,34.91
2022-07-27T09:01:01.236Z,34.96
2022-07-27T09:02:05.116Z,34.68
2022-07-27T09:03:07.965Z,34.34
2022-07-27T09:04:10.898Z,34.55
2022-07-27T09:05:13.552Z,34.78
2022-07-27T09:06:17.962Z,34.59
2022-07-27T09:07:20.631Z,34.77
2022-07-27T09:08:23.195Z,34.32
2022-07-27T09:09:25.772Z,34.51
2022-07-27T09:10:29.256Z,34.86
2022-07-27T09:11:31.931Z,35.12
2022-07-27T09:12:34.489Z,35.26
2022-07-27T09:13:37.058Z,35.38
2022-07-27T09:14:39.742Z,35.27
2022-07-27T09:16:03.402Z,34.18
2022-07-27T09:17:44.098Z,33.66
2022-07-27T09:17:51.895Z,34.08
2022-07-27T09:18:54.609Z,34.17
2022-07-27T09:19:57.276Z,34.39
2022-07-27T09:21:00.296Z,34.55
2022-07-27T09:22:04.180Z,34.58
2022-07-27T09:23:06.818Z,34.62
2022-07-27T09:24:23.317Z,34.80
2022-07-27T09:25:14.302Z,34.95
2022-07-27T09:26:31.203Z,35.11
2022-07-27T09:27:22.410Z,35.30
2022-07-27T09:28:25.075Z,35.49
2022-07-27T09:29:27.749Z,35.66
2022-07-27T09:30:31.986Z,35.81
2022-07-27T09:31:34.542Z,36.05
2022-07-27T09:32:37.388Z,36.24
2022-07-27T09:33:39.916Z,36.32
2022-07-27T09:34:43.284Z,36.32
2022-07-27T09:35:47.141Z,36.44
2022-07-27T09:36:50.117Z,36.18
2022-07-27T09:37:52.788Z,36.10
2022-07-27T09:39:00.169Z,36.14
2022-07-27T09:39:59.923Z,36.26
2022-07-27T09:41:02.537Z,36.13
2022-07-27T09:42:06.104Z,36.16
2022-07-27T09:43:32.126Z,35.91
2022-07-27T09:44:32.258Z,35.99
2022-07-27T09:45:19.762Z,36.15
2022-07-27T09:46:24.899Z,36.47
2022-07-27T09:47:29.371Z,36.78
2022-07-27T09:48:32.029Z,36.93
2022-07-27T09:49:34.641Z,37.00
2022-07-27T09:50:38.607Z,37.14
2022-07-27T09:51:59.298Z,37.35
2022-07-27T09:52:45.789Z,37.22
2022-07-27T09:53:48.456Z,37.35
2022-07-27T09:54:51.014Z,36.88
2022-07-27T09:55:58.984Z,36.73
2022-07-27T09:56:58.340Z,36.67
2022-07-27T09:58:00.905Z,36.82
2022-07-27T09:59:03.576Z,36.97
2022-07-27T10:00:06.623Z,37.05
2022-07-27T10:01:09.752Z,36.43
2022-07-27T10:02:12.667Z,36.44
2022-07-27T10:03:15.645Z,36.28
2022-07-27T10:04:18.331Z,36.10
2022-07-27T10:05:20.881Z,36.49
2022-07-27T10:06:25.255Z,36.84
2022-07-27T10:07:28.925Z,37.05
2022-07-27T10:08:31.489Z,37.06
2022-07-27T10:09:34.069Z,36.84
2022-07-27T10:10:37.142Z,36.78
2022-07-27T10:11:39.808Z,36.67
2022-07-27T10:12:42.686Z,36.57
2022-07-27T10:13:45.350Z,36.40
2022-07-27T10:14:48.024Z,36.12
2022-07-27T10:15:50.764Z,35.83
2022-07-27T10:16:53.724Z,35.54
2022-07-27T10:17:56.338Z,35.28
2022-07-27T10:18:59.014Z,35.16
2022-07-27T10:20:01.632Z,35.23
2022-07-27T10:21:04.340Z,35.31
2022-07-27T10:22:06.972Z,34.91
2022-07-27T10:23:09.985Z,34.50
2022-07-27T10:24:13.351Z,33.98
2022-07-27T10:25:16.245Z,34.03
2022-07-27T10:26:19.594Z,34.06
2022-07-27T10:27:22.310Z,34.00
2022-07-27T10:28:25.277Z,33.92
2022-07-27T10:29:27.848Z,33.63
2022-07-27T10:30:30.844Z,33.31
2022-07-27T10:31:33.479Z,32.86
2022-07-27T10:32:36.163Z,32.55
2022-07-27T10:33:38.830Z,32.45
2022-07-27T10:34:41.401Z,32.41
2022-07-27T10:35:44.035Z,32.34
2022-07-27T10:36:47.173Z,32.30
2022-07-27T10:37:49.917Z,32.19
2022-07-27T10:38:52.485Z,32.10
2022-07-27T10:39:55.049Z,32.19
2022-07-27T10:40:58.123Z,32.40
2022-07-27T10:42:02.127Z,32.69
2022-07-27T10:43:04.961Z,32.96
2022-07-27T10:44:07.672Z,32.93
2022-07-27T10:45:10.365Z,32.83
2022-07-27T10:46:13.912Z,33.17
2022-07-27T10:47:16.561Z,33.24
2022-07-27T10:48:19.374Z,33.52
2022-07-27T10:49:23.973Z,33.94
2022-07-27T10:50:27.075Z,34.01
2022-07-27T10:51:29.698Z,34.27
2022-07-27T10:52:32.308Z,34.61
2022-07-27T10:53:55.089Z,34.89
2022-07-27T10:54:39.798Z,35.03
2022-07-27T10:55:42.568Z,35.22
2022-07-27T10:56:45.241Z,35.45
2022-07-27T10:57:47.912Z,35.87
2022-07-27T10:58:50.501Z,35.75
2022-07-27T11:00:12.201Z,35.84
2022-07-27T11:00:57.979Z,36.13
2022-07-27T11:02:00.599Z,36.01
2022-07-27T11:03:03.420Z,36.44
2022-07-27T11:04:06.154Z,36.31
2022-07-27T11:05:18.303Z,36.37
2022-07-27T11:07:24.990Z,35.45
2022-07-27T11:08:36.793Z,35.33
2022-07-27T11:10:34.378Z,34.81
2022-07-27T11:11:36.946Z,34.79
2022-07-27T11:12:39.621Z,34.73
2022-07-27T11:13:42.285Z,34.98
2022-07-27T11:14:44.919Z,35.43
2022-07-27T11:15:47.537Z,35.87
2022-07-27T11:16:55.989Z,36.29
2022-07-27T11:18:03.396Z,36.69
2022-07-27T11:18:59.509Z,36.85
2022-07-27T11:20:02.496Z,37.18
2022-07-27T11:21:05.069Z,37.49
2022-07-27T11:22:22.218Z,37.80
2022-07-27T11:23:49.978Z,37.74
2022-07-27T11:24:17.705Z,37.75
2022-07-27T11:25:20.342Z,37.92
2022-07-27T11:26:24.039Z,38.10
2022-07-27T11:27:26.598Z,38.25
2022-07-27T11:28:29.169Z,38.58
2022-07-27T11:29:31.747Z,38.94
2022-07-27T11:30:35.391Z,39.25
2022-07-27T11:31:54.716Z,39.52
2022-07-27T11:32:42.716Z,39.76
2022-07-27T11:33:45.382Z,39.85
2022-07-27T11:34:47.907Z,39.71
2022-07-27T11:35:50.631Z,39.61
2022-07-27T11:36:54.004Z,39.61
2022-07-27T11:37:56.553Z,39.46
2022-07-27T11:38:59.142Z,39.30
2022-07-27T11:40:05.039Z,39.20
2022-07-27T11:41:15.304Z,39.28
2022-07-27T11:42:11.997Z,38.56
2022-07-27T11:43:15.856Z,38.11
2022-07-27T11:44:18.792Z,37.74
2022-07-27T11:45:22.119Z,37.11
2022-07-27T11:46:25.165Z,36.90
2022-07-27T11:47:28.382Z,37.08
2022-07-27T11:48:44.022Z,36.99
2022-07-27T11:49:35.509Z,37.07
2022-07-27T11:50:39.151Z,37.22
2022-07-27T11:51:41.823Z,37.42
2022-07-27T11:52:44.454Z,37.71
2022-07-27T11:53:47.057Z,37.88
2022-07-27T11:54:49.533Z,38.05
2022-07-27T11:55:52.190Z,38.15
2022-07-27T11:56:55.472Z,38.21
2022-07-27T11:57:58.041Z,38.21
2022-07-27T11:59:01.544Z,38.22
2022-07-27T12:00:04.420Z,38.20
2022-07-27T12:01:06.970Z,38.29
2022-07-27T12:02:09.570Z,38.21
2022-07-27T12:03:12.720Z,38.08
2022-07-27T12:04:15.388Z,38.05
2022-07-27T12:05:18.085Z,38.03
2022-07-27T12:06:22.471Z,37.88
2022-07-27T12:07:25.136Z,37.90
2022-07-27T12:08:27.707Z,37.92
2022-07-27T12:09:38.308Z,37.89
2022-07-27T12:10:37.731Z,37.86
2022-07-27T12:11:39.296Z,37.90
2022-07-27T12:12:42.067Z,37.88
2022-07-27T12:13:44.632Z,37.67
2022-07-27T12:14:47.206Z,37.48
2022-07-27T12:15:49.767Z,37.44
2022-07-27T12:16:52.425Z,37.53
2022-07-27T12:17:55.018Z,37.64
2022-07-27T12:18:59.109Z,37.78
2022-07-27T12:20:01.681Z,37.92
2022-07-27T12:21:04.261Z,38.09
2022-07-27T12:22:06.818Z,38.18
2022-07-27T12:23:09.888Z,38.28
2022-07-27T12:24:12.561Z,38.32
2022-07-27T12:25:16.903Z,38.38
2022-07-27T12:26:20.349Z,38.48
2022-07-27T12:27:23.043Z,38.61
2022-07-27T12:28:25.791Z,38.69
2022-07-27T12:29:28.364Z,38.82
2022-07-27T12:30:31.736Z,38.86
2022-07-27T12:31:34.626Z,38.81
2022-07-27T12:32:37.184Z,38.77
2022-07-27T12:33:39.761Z,38.85
2022-07-27T12:34:42.551Z,38.54
2022-07-27T12:35:46.233Z,38.55
2022-07-27T12:36:51.072Z,38.77
2022-07-27T12:37:54.421Z,38.81
2022-07-27T12:38:56.996Z,39.05
2022-07-27T12:39:59.660Z,39.20
2022-07-27T12:41:02.634Z,39.31
2022-07-27T12:42:05.339Z,39.53
2022-07-27T12:43:08.583Z,39.70
2022-07-27T12:44:11.219Z,39.74
2022-07-27T12:45:13.868Z,39.84
2022-07-27T12:46:18.178Z,39.82
2022-07-27T12:47:25.426Z,39.90
2022-07-27T12:48:25.209Z,40.03
2022-07-27T12:49:27.774Z,40.12
2022-07-27T12:50:30.926Z,40.09
2022-07-27T12:51:33.524Z,40.04
2022-07-27T12:52:36.093Z,40.09
2022-07-27T12:53:38.771Z,40.14
2022-07-27T12:54:41.593Z,40.14
2022-07-27T12:55:44.206Z,40.07
2022-07-27T12:56:47.284Z,40.01
2022-07-27T12:57:57.392Z,39.85
2022-07-27T12:58:54.217Z,39.50
2022-07-27T12:59:56.840Z,39.23
2022-07-27T13:00:59.866Z,39.09
2022-07-27T13:02:03.378Z,39.02
2022-07-27T13:03:06.059Z,38.87
2022-07-27T13:04:08.628Z,38.80
2022-07-27T13:05:11.073Z,38.70
2022-07-27T13:06:14.785Z,38.70
2022-07-27T13:07:17.764Z,38.63
2022-07-27T13:08:20.330Z,38.53
2022-07-27T13:09:22.903Z,38.51
2022-07-27T13:10:27.307Z,38.64
2022-07-27T13:11:29.933Z,38.76
2022-07-27T13:12:32.543Z,38.85
2022-07-27T13:13:35.069Z,38.79
2022-07-27T13:14:37.880Z,38.89
2022-07-27T13:15:42.699Z,39.02
2022-07-27T13:16:45.725Z,39.20
2022-07-27T13:17:48.655Z,39.39
2022-07-27T13:18:51.178Z,39.35
2022-07-27T13:19:53.852Z,39.40
2022-07-27T13:20:56.664Z,39.51
2022-07-27T13:21:59.329Z,39.46
2022-07-27T13:23:01.910Z,39.26
2022-07-27T13:24:05.386Z,38.97
2022-07-27T13:25:16.132Z,38.63
2022-07-27T13:26:13.140Z,38.25
2022-07-27T13:27:15.813Z,37.87
2022-07-27T13:28:18.420Z,37.51
2022-07-27T13:29:21.395Z,37.18
2022-07-27T13:30:25.822Z,36.87
2022-07-27T13:31:28.521Z,36.52
2022-07-27T13:32:31.567Z,36.15
2022-07-27T13:33:34.282Z,35.63
2022-07-27T13:34:36.889Z,34.77
2022-07-27T13:35:41.376Z,34.61